Time;durP1;ratioP1;P1;durP2;ratioP2;P2;SDS_P1;SDS_P2;PMS_P1;PMS_P2;Temp;Humidity;BMP_temperature;BMP_pressure;BME280_temperature;BME280_humidity;BME280_pressure;Samples;Min_cycle;Max_cycle;Signal;HPM_P1;HPM_P2
2022/05/18 00:00:27;;;;;;;20.70;19.00;;;15.50;99.90;;;;;;4989751;28;20522;-51
2022/05/18 00:02:58;;;;;;;20.43;18.67;;;15.50;99.90;;;;;;4990826;28;20176;-50
2022/05/18 00:05:24;;;;;;;20.00;18.30;;;15.50;99.90;;;;;;4988532;28;20931;-51
2022/05/18 00:07:50;;;;;;;20.67;18.97;;;15.40;99.90;;;;;;4988657;28;20445;-52
2022/05/18 00:10:17;;;;;;;20.10;18.30;;;15.40;99.90;;;;;;4988282;28;20208;-53
2022/05/18 00:12:44;;;;;;;20.50;18.77;;;15.40;99.90;;;;;;4989404;28;20443;-52
2022/05/18 00:15:11;;;;;;;20.47;18.67;;;15.40;99.90;;;;;;4988595;28;20835;-53
2022/05/18 00:17:36;;;;;;;21.40;19.50;;;15.40;99.90;;;;;;4989129;28;20487;-55
2022/05/18 00:20:03;;;;;;;21.00;19.20;;;15.40;99.90;;;;;;4988227;28;20435;-52
2022/05/18 00:22:28;;;;;;;19.77;18.07;;;15.40;99.90;;;;;;4989807;28;20195;-52
2022/05/18 00:24:55;;;;;;;21.17;19.37;;;15.30;99.90;;;;;;4988747;28;20438;-53
2022/05/18 00:27:20;;;;;;;21.20;19.30;;;15.20;99.90;;;;;;4988418;28;20196;-51
2022/05/18 00:29:46;;;;;;;20.90;19.10;;;15.20;99.90;;;;;;4988508;28;20470;-54
2022/05/18 00:32:11;;;;;;;20.50;18.80;;;15.20;99.90;;;;;;4988032;28;20184;-53
2022/05/18 00:34:37;;;;;;;22.00;19.80;;;15.20;99.90;;;;;;4989231;28;20202;-50
2022/05/18 00:37:02;;;;;;;22.30;20.30;;;15.20;99.90;;;;;;4988499;28;20655;-51
2022/05/18 00:39:28;;;;;;;21.37;19.47;;;15.20;99.90;;;;;;4984130;28;20192;-50
2022/05/18 00:41:53;;;;;;;20.90;19.10;;;15.20;99.90;;;;;;4980551;28;20529;-53
2022/05/18 00:44:21;;;;;;;21.80;19.90;;;15.20;99.90;;;;;;4987631;28;21031;-54
2022/05/18 00:46:46;;;;;;;21.60;19.80;;;15.10;99.90;;;;;;4988137;28;20188;-53
2022/05/18 00:49:12;;;;;;;21.47;19.40;;;15.10;99.90;;;;;;4978408;28;20472;-51
2022/05/18 00:51:46;;;;;;;21.27;19.40;;;15.10;99.90;;;;;;4987496;28;20192;-54
2022/05/18 00:54:13;;;;;;;21.03;19.23;;;15.10;99.90;;;;;;4990065;28;20588;-51
2022/05/18 00:56:56;;;;;;;20.97;18.97;;;15.10;99.90;;;;;;4985631;28;20469;-53
2022/05/18 00:59:27;;;;;;;19.93;18.23;;;15.10;99.90;;;;;;4989581;28;20462;-51
2022/05/18 01:01:55;;;;;;;21.13;19.20;;;15.20;99.90;;;;;;4973928;28;20450;-55
2022/05/18 01:04:22;;;;;;;21.73;19.83;;;15.30;99.90;;;;;;4989032;28;20506;-53
2022/05/18 01:06:59;;;;;;;20.70;18.80;;;15.40;99.40;;;;;;4987966;28;20930;-52
2022/05/18 01:09:37;;;;;;;21.30;19.40;;;15.20;99.90;;;;;;4988505;28;20828;-53
2022/05/18 01:12:05;;;;;;;22.17;20.13;;;15.20;99.90;;;;;;4988724;28;20423;-51
2022/05/18 01:14:39;;;;;;;21.93;20.00;;;15.00;99.90;;;;;;4987452;28;20431;-51
2022/05/18 01:17:05;;;;;;;22.30;20.40;;;15.00;99.90;;;;;;4990949;28;20426;-53
2022/05/18 01:19:44;;;;;;;20.43;18.70;;;14.90;99.90;;;;;;4990366;28;20450;-54
2022/05/18 01:22:31;;;;;;;24.03;21.73;;;14.90;99.90;;;;;;4977057;28;20439;-53
2022/05/18 01:25:25;;;;;;;21.80;19.83;;;14.80;99.90;;;;;;4975785;28;20448;-55
2022/05/18 01:27:52;;;;;;;22.63;20.63;;;14.80;99.90;;;;;;4985722;28;20443;-55
2022/05/18 01:30:18;;;;;;;22.37;20.47;;;14.80;99.90;;;;;;4990855;28;20549;-51
2022/05/18 01:32:49;;;;;;;22.60;20.70;;;14.80;99.90;;;;;;4992839;28;20498;-54
2022/05/18 01:35:18;;;;;;;23.00;20.90;;;14.80;99.90;;;;;;4984379;28;20503;-54
2022/05/18 01:37:44;;;;;;;22.00;20.00;;;14.80;99.90;;;;;;4989224;28;20435;-55
2022/05/18 01:40:44;;;;;;;21.87;19.97;;;14.70;99.90;;;;;;4982257;28;21329;-51
2022/05/18 01:43:37;;;;;;;23.50;21.20;;;14.70;99.90;;;;;;5001920;28;20571;-53
2022/05/18 01:46:06;;;;;;;21.90;20.00;;;14.70;99.90;;;;;;4990355;28;20442;-50
2022/05/18 01:48:38;;;;;;;24.40;22.17;;;14.60;99.90;;;;;;5006953;28;20428;-52
2022/05/18 01:51:06;;;;;;;22.53;20.43;;;14.60;99.90;;;;;;4984282;28;20451;-50
2022/05/18 01:53:32;;;;;;;23.60;21.40;;;14.50;99.90;;;;;;4990605;28;20441;-51
2022/05/18 01:55:58;;;;;;;22.50;20.50;;;14.50;99.90;;;;;;4986539;28;21001;-55
2022/05/18 01:58:24;;;;;;;23.47;21.37;;;14.40;99.90;;;;;;4991076;28;20491;-54
2022/05/18 02:00:51;;;;;;;23.20;21.10;;;14.40;99.90;;;;;;4991099;28;20187;-54
2022/05/18 02:03:18;;;;;;;24.10;21.80;;;14.30;99.90;;;;;;4992880;28;20418;-55
2022/05/18 02:05:44;;;;;;;23.90;21.60;;;14.30;99.90;;;;;;4991948;28;20447;-53
2022/05/18 02:08:13;;;;;;;22.67;20.70;;;14.30;99.90;;;;;;4989852;28;20489;-50
2022/05/18 02:10:39;;;;;;;24.47;22.07;;;14.20;99.90;;;;;;4992347;28;20510;-55
2022/05/18 02:13:05;;;;;;;23.03;20.93;;;14.20;99.90;;;;;;5001529;28;20467;-53
2022/05/18 02:15:31;;;;;;;24.50;22.20;;;14.10;99.90;;;;;;4990635;28;20804;-51
2022/05/18 02:17:57;;;;;;;23.20;21.00;;;14.10;99.90;;;;;;4987564;28;20438;-50
2022/05/18 02:20:23;;;;;;;23.70;21.50;;;14.10;99.90;;;;;;4982984;28;20484;-53
2022/05/18 02:22:49;;;;;;;23.37;21.27;;;14.10;99.90;;;;;;4982489;28;20765;-53
2022/05/18 02:25:15;;;;;;;23.67;21.50;;;14.00;99.90;;;;;;4992190;28;20245;-55
2022/05/18 02:27:40;;;;;;;23.57;21.37;;;13.90;99.90;;;;;;4990224;28;20435;-53
2022/05/18 02:30:07;;;;;;;23.60;21.27;;;13.80;99.90;;;;;;4988446;28;20215;-51
2022/05/18 02:32:33;;;;;;;21.43;19.50;;;13.80;99.90;;;;;;4983854;28;20268;-52
2022/05/18 02:34:58;;;;;;;22.77;20.67;;;13.80;99.90;;;;;;4988345;28;20973;-51
2022/05/18 02:37:24;;;;;;;24.00;21.70;;;13.80;99.90;;;;;;4997317;28;20185;-54
2022/05/18 02:39:50;;;;;;;23.03;20.83;;;13.80;99.90;;;;;;4985005;28;20215;-49
2022/05/18 02:42:15;;;;;;;23.07;21.00;;;13.70;99.90;;;;;;4995052;28;20192;-54
2022/05/18 02:44:41;;;;;;;23.00;21.00;;;13.70;99.90;;;;;;4991947;28;20188;-54
2022/05/18 02:47:06;;;;;;;23.33;21.23;;;13.60;99.90;;;;;;4990767;28;20196;-52
2022/05/18 02:49:32;;;;;;;23.47;21.27;;;13.60;99.90;;;;;;4988199;28;20212;-53
2022/05/18 02:51:58;;;;;;;22.77;20.77;;;13.60;99.90;;;;;;4991492;28;20188;-51
2022/05/18 02:57:09;;;;;;;23.67;21.37;;;13.40;99.90;;;;;;4979160;28;20454;-54
2022/05/18 02:59:34;;;;;;;22.10;20.10;;;13.30;99.90;;;;;;4990485;28;20453;-54
2022/05/18 03:02:00;;;;;;;23.27;21.10;;;13.30;99.90;;;;;;4991259;28;20420;-53
2022/05/18 03:04:29;;;;;;;23.47;21.37;;;13.30;99.90;;;;;;4981985;28;20177;-55
2022/05/18 03:06:55;;;;;;;23.97;21.87;;;13.30;99.90;;;;;;4987573;28;20521;-54
2022/05/18 03:09:21;;;;;;;22.60;20.50;;;13.20;99.90;;;;;;4990263;28;20881;-51
2022/05/18 03:11:47;;;;;;;23.53;21.40;;;13.20;99.90;;;;;;4991411;28;20419;-51
2022/05/18 03:14:13;;;;;;;23.47;21.27;;;13.20;99.90;;;;;;4977792;28;20507;-50
2022/05/18 03:16:40;;;;;;;25.20;22.80;;;13.10;99.90;;;;;;4991051;28;20180;-54
2022/05/18 03:19:05;;;;;;;25.20;22.67;;;13.00;99.90;;;;;;4978348;28;20498;-54
2022/05/18 03:24:15;;;;;;;25.90;23.50;;;12.90;99.90;;;;;;4985700;28;20231;-51
2022/05/18 03:26:41;;;;;;;23.17;21.00;;;12.80;99.90;;;;;;4990688;28;20420;-55
2022/05/18 03:29:06;;;;;;;23.50;21.30;;;12.80;99.90;;;;;;4990977;28;20195;-53
2022/05/18 03:31:32;;;;;;;23.53;21.30;;;12.80;99.90;;;;;;4979236;28;20267;-53
2022/05/18 03:33:58;;;;;;;22.13;20.07;;;12.80;99.90;;;;;;4990938;28;20188;-55
2022/05/18 03:36:24;;;;;;;23.90;21.60;;;12.80;99.90;;;;;;5005846;28;20188;-53
2022/05/18 03:38:50;;;;;;;23.47;21.40;;;12.80;99.90;;;;;;4989630;28;20905;-49
2022/05/18 03:41:17;;;;;;;24.13;21.93;;;12.80;99.90;;;;;;4985485;28;20431;-50
2022/05/18 03:43:43;;;;;;;24.00;21.67;;;12.80;99.90;;;;;;4990326;28;20419;-54
2022/05/18 03:46:10;;;;;;;24.97;22.17;;;12.70;99.90;;;;;;4985291;28;20490;-51
2022/05/18 03:48:36;;;;;;;22.30;20.20;;;12.70;99.90;;;;;;4983290;28;20436;-52
2022/05/18 03:51:04;;;;;;;24.43;21.13;;;12.70;99.90;;;;;;4981974;28;20530;-54
2022/05/18 03:53:30;;;;;;;24.03;21.83;;;12.70;99.90;;;;;;4990588;28;20432;-54
2022/05/18 03:55:56;;;;;;;22.60;20.50;;;12.70;99.90;;;;;;4978793;28;20829;-54
2022/05/18 03:58:22;;;;;;;24.43;22.13;;;12.70;99.90;;;;;;4989041;28;20518;-51
2022/05/18 04:00:49;;;;;;;23.03;20.93;;;12.70;99.90;;;;;;4989486;28;20742;-50
2022/05/18 04:03:18;;;;;;;25.13;21.23;;;12.60;99.90;;;;;;4988711;28;20591;-51
2022/05/18 04:05:43;;;;;;;24.13;21.90;;;12.50;99.90;;;;;;4988673;28;20424;-49
2022/05/18 04:08:11;;;;;;;23.40;21.30;;;12.50;99.90;;;;;;4980293;28;20917;-53
2022/05/18 04:10:38;;;;;;;24.17;21.93;;;12.50;99.90;;;;;;4980027;28;20196;-53
2022/05/18 04:13:04;;;;;;;23.37;21.10;;;12.50;99.90;;;;;;4980703;28;20442;-54
2022/05/18 04:15:30;;;;;;;21.97;19.87;;;12.50;99.90;;;;;;4980048;28;20435;-53
2022/05/18 04:17:56;;;;;;;25.00;22.63;;;12.50;99.90;;;;;;4996293;28;20527;-48
2022/05/18 04:20:23;;;;;;;23.90;21.70;;;12.50;99.90;;;;;;4979967;28;20309;-50
2022/05/18 04:22:50;;;;;;;25.20;22.90;;;12.50;99.90;;;;;;4979920;28;20192;-53
2022/05/18 04:25:19;;;;;;;23.47;21.17;;;12.50;99.90;;;;;;4980328;28;20431;-53
2022/05/18 04:27:48;;;;;;;24.30;22.00;;;12.40;99.90;;;;;;4980784;28;20469;-51
2022/05/18 04:30:15;;;;;;;24.53;22.00;;;12.50;99.90;;;;;;4980860;28;20473;-53
2022/05/18 04:32:41;;;;;;;25.23;22.87;;;12.50;99.90;;;;;;4980289;28;20997;-53
2022/05/18 04:35:08;;;;;;;23.40;21.20;;;12.50;99.90;;;;;;4981574;28;20439;-54
2022/05/18 04:37:35;;;;;;;23.27;20.93;;;12.60;99.90;;;;;;4979324;28;20925;-55
2022/05/18 04:40:01;;;;;;;24.10;21.90;;;12.60;99.90;;;;;;4979881;28;20478;-52
2022/05/18 04:42:26;;;;;;;23.03;20.87;;;12.60;99.90;;;;;;4980124;28;21106;-54
2022/05/18 04:44:52;;;;;;;22.40;20.30;;;12.60;99.90;;;;;;4988212;28;20190;-54
2022/05/18 04:47:21;;;;;;;22.40;20.27;;;12.70;99.90;;;;;;4989448;28;20595;-52
2022/05/18 04:49:49;;;;;;;22.07;19.97;;;12.80;99.90;;;;;;4989752;28;20663;-49
2022/05/18 04:52:14;;;;;;;21.50;19.50;;;12.90;99.90;;;;;;4991025;28;20419;-51
2022/05/18 04:54:40;;;;;;;21.70;19.60;;;12.90;99.90;;;;;;4979652;28;20419;-48
2022/05/18 04:57:06;;;;;;;21.03;18.90;;;13.00;99.90;;;;;;4983690;28;20572;-50
2022/05/18 04:59:31;;;;;;;19.83;17.93;;;13.00;99.90;;;;;;4976728;28;20274;-50
2022/05/18 05:01:57;;;;;;;18.10;16.50;;;13.10;99.90;;;;;;4984548;28;20216;-54
2022/05/18 05:04:22;;;;;;;19.07;17.07;;;13.20;99.90;;;;;;4975722;28;20196;-48
2022/05/18 05:06:48;;;;;;;18.50;16.70;;;13.20;99.90;;;;;;4974288;28;20248;-54
2022/05/18 05:09:13;;;;;;;17.87;16.27;;;13.40;99.90;;;;;;4973934;28;20848;-52
2022/05/18 05:11:39;;;;;;;17.27;15.50;;;13.50;99.90;;;;;;4974226;28;20950;-50
2022/05/18 05:14:05;;;;;;;16.63;15.03;;;13.50;99.40;;;;;;4974044;28;20185;-52
2022/05/18 05:16:32;;;;;;;17.30;15.63;;;13.60;94.50;;;;;;4974222;28;20185;-53
2022/05/18 05:18:58;;;;;;;16.43;14.83;;;13.60;89.00;;;;;;5002264;28;20466;-52
2022/05/18 05:21:24;;;;;;;15.53;14.23;;;13.70;80.40;;;;;;4991071;28;20424;-53
2022/05/18 05:23:49;;;;;;;17.83;16.33;;;13.90;73.00;;;;;;4990895;28;20407;-49
2022/05/18 05:26:15;;;;;;;16.07;14.77;;;13.90;64.40;;;;;;4990514;28;20176;-51
2022/05/18 05:28:42;;;;;;;15.60;14.20;;;13.90;53.80;;;;;;4991896;28;20528;-55
2022/05/18 05:31:10;;;;;;;16.37;14.73;;;14.00;51.40;;;;;;4987915;28;20498;-50
2022/05/18 05:33:36;;;;;;;15.23;13.93;;;14.00;50.10;;;;;;4992984;28;20510;-52
2022/05/18 05:36:03;;;;;;;17.57;15.77;;;14.10;47.00;;;;;;4992226;28;20412;-53
2022/05/18 05:38:29;;;;;;;15.60;14.30;;;14.20;46.10;;;;;;4993003;28;20416;-49
2022/05/18 05:40:55;;;;;;;15.23;13.83;;;14.30;43.30;;;;;;4992875;28;20485;-50
2022/05/18 05:43:21;;;;;;;15.33;13.93;;;14.40;35.80;;;;;;4989558;28;20243;-50
2022/05/18 05:46:09;;;;;;;14.30;13.00;;;14.50;32.90;;;;;;4987444;28;20187;-47
2022/05/18 05:48:34;;;;;;;15.00;13.77;;;14.60;27.00;;;;;;4993094;28;20438;-50
2022/05/18 05:51:01;;;;;;;15.10;13.77;;;14.60;18.60;;;;;;4992811;28;20437;-50
2022/05/18 05:53:27;;;;;;;14.43;13.10;;;14.70;20.90;;;;;;4992759;28;20188;-51
2022/05/18 05:55:54;;;;;;;14.87;13.40;;;14.80;19.60;;;;;;4991772;28;20822;-52
2022/05/18 05:58:20;;;;;;;13.63;12.37;;;14.90;13.80;;;;;;4984276;28;20523;-50
2022/05/18 06:00:46;;;;;;;13.27;12.17;;;15.00;1.00;;;;;;4973126;28;20495;-54
2022/05/18 06:03:14;;;;;;;13.90;12.63;;;15.10;1.00;;;;;;4993333;28;20424;-52
2022/05/18 06:05:40;;;;;;;13.57;12.37;;;15.20;1.00;;;;;;4978741;28;20526;-48
2022/05/18 06:08:06;;;;;;;12.37;11.37;;;15.30;1.00;;;;;;4974780;28;20970;-51
2022/05/18 06:10:32;;;;;;;13.07;11.90;;;15.50;1.00;;;;;;4984096;28;20570;-51
2022/05/18 06:12:57;;;;;;;13.47;12.37;;;15.50;1.00;;;;;;4991573;28;21001;-52
2022/05/18 06:15:23;;;;;;;12.13;11.10;;;15.70;1.00;;;;;;4983269;28;20188;-52
2022/05/18 06:17:48;;;;;;;14.43;13.03;;;15.80;1.00;;;;;;4986684;28;20691;-52
2022/05/18 06:20:14;;;;;;;12.40;11.40;;;15.90;1.00;;;;;;4992209;28;20552;-50
2022/05/18 06:22:39;;;;;;;12.23;11.23;;;15.90;1.00;;;;;;4991930;28;20177;-55
2022/05/18 06:25:05;;;;;;;12.40;11.30;;;16.00;1.00;;;;;;4992275;28;20190;-52
2022/05/18 06:27:31;;;;;;;12.13;11.13;;;16.20;1.00;;;;;;4991189;28;20185;-52
2022/05/18 06:29:56;;;;;;;12.13;11.03;;;16.30;1.00;;;;;;4992257;28;20448;-53
2022/05/18 06:32:22;;;;;;;12.60;11.50;;;16.40;1.00;;;;;;4991778;28;20577;-50
2022/05/18 06:34:48;;;;;;;11.50;10.57;;;16.50;1.00;;;;;;4991770;28;20186;-53
2022/05/18 06:37:15;;;;;;;12.30;11.20;;;16.50;1.00;;;;;;4990581;28;20182;-50
2022/05/18 06:39:41;;;;;;;12.17;11.07;;;16.50;1.00;;;;;;4981967;28;20475;-50
2022/05/18 06:42:06;;;;;;;12.13;10.90;;;16.60;1.00;;;;;;4984043;28;20423;-55
2022/05/18 06:44:32;;;;;;;12.60;11.40;;;16.70;1.00;;;;;;4971412;28;20443;-52
2022/05/18 06:47:01;;;;;;;12.10;11.10;;;16.70;1.00;;;;;;4971667;28;20180;-53
2022/05/18 06:49:27;;;;;;;12.10;10.97;;;16.80;1.00;;;;;;4979494;28;21276;-50
2022/05/18 06:51:55;;;;;;;12.57;11.47;;;16.90;1.00;;;;;;4990048;28;20450;-54
2022/05/18 06:54:21;;;;;;;12.23;11.23;;;16.90;1.00;;;;;;4991103;28;20476;-54
2022/05/18 06:56:47;;;;;;;12.40;11.30;;;17.00;1.00;;;;;;4990051;28;20919;-52
2022/05/18 06:59:14;;;;;;;11.70;10.60;;;17.10;1.00;;;;;;5003361;28;20206;-53
2022/05/18 07:01:41;;;;;;;12.23;11.20;;;17.10;1.00;;;;;;4984555;28;20259;-54
2022/05/18 07:04:09;;;;;;;13.50;12.30;;;17.10;1.00;;;;;;4980068;28;20558;-52
2022/05/18 07:06:38;;;;;;;12.20;11.20;;;17.10;1.00;;;;;;4988190;28;20418;-50
2022/05/18 07:09:05;;;;;;;12.07;11.07;;;17.20;1.00;;;;;;4989328;28;20447;-49
2022/05/18 07:11:31;;;;;;;12.07;10.90;;;17.20;1.00;;;;;;4990395;28;20423;-51
2022/05/18 07:13:58;;;;;;;12.17;11.17;;;17.20;1.00;;;;;;4989230;28;20430;-53
2022/05/18 07:16:26;;;;;;;11.80;10.80;;;17.40;1.00;;;;;;4989376;28;20455;-53
2022/05/18 07:18:53;;;;;;;12.53;11.33;;;17.50;1.00;;;;;;4990790;28;20418;-55
2022/05/18 07:21:19;;;;;;;11.83;10.73;;;17.60;1.00;;;;;;4987066;28;20438;-53
2022/05/18 07:23:46;;;;;;;12.97;11.67;;;17.70;1.00;;;;;;4990520;28;20780;-50
2022/05/18 07:26:12;;;;;;;12.73;11.53;;;17.80;1.00;;;;;;4990398;28;20917;-52
2022/05/18 07:28:39;;;;;;;12.53;11.53;;;17.90;1.00;;;;;;4989715;28;20423;-52
2022/05/18 07:31:06;;;;;;;13.00;11.90;;;18.10;1.00;;;;;;5000322;28;20489;-51
2022/05/18 07:33:31;;;;;;;11.87;10.87;;;18.30;1.00;;;;;;4989659;28;20446;-50
2022/05/18 07:35:57;;;;;;;12.87;11.57;;;18.40;1.00;;;;;;4989294;28;20415;-51
2022/05/18 07:38:25;;;;;;;12.37;11.10;;;18.50;1.00;;;;;;4985892;28;20647;-52
2022/05/18 07:40:51;;;;;;;12.70;11.70;;;18.70;1.00;;;;;;4991050;28;20209;-51
2022/05/18 07:43:20;;;;;;;13.23;12.03;;;18.80;99.90;;;;;;4985272;28;20426;-53
2022/05/18 07:45:46;;;;;;;13.03;11.90;;;18.90;99.90;;;;;;4990131;28;20887;-52
2022/05/18 07:48:12;;;;;;;13.43;12.17;;;19.00;99.90;;;;;;4990322;28;20426;-50
2022/05/18 07:50:38;;;;;;;12.20;11.20;;;19.10;99.90;;;;;;4974175;28;20421;-50
2022/05/18 07:53:04;;;;;;;12.27;11.17;;;19.20;99.90;;;;;;4970856;28;20180;-53
2022/05/18 07:55:29;;;;;;;12.53;11.53;;;19.40;1.00;;;;;;4985245;28;20192;-51
2022/05/18 07:57:55;;;;;;;11.90;10.90;;;19.50;26.30;;;;;;4988960;28;20189;-51
2022/05/18 08:00:23;;;;;;;11.93;10.90;;;19.70;99.90;;;;;;4987221;28;20216;-49
2022/05/18 08:02:49;;;;;;;12.17;10.97;;;19.80;1.00;;;;;;4989949;28;20582;-49
2022/05/18 08:05:15;;;;;;;12.80;11.70;;;19.90;99.90;;;;;;4974416;28;20506;-51
2022/05/18 08:07:45;;;;;;;12.20;11.13;;;20.10;1.00;;;;;;4988736;28;20750;-54
2022/05/18 08:15:42;;;;;;;11.07;10.27;;;20.40;1.00;;;;;;4973995;28;20907;-54
2022/05/18 08:18:09;;;;;;;12.10;10.90;;;20.70;99.90;;;;;;4988783;28;20419;-53
2022/05/18 08:20:40;;;;;;;12.50;11.40;;;20.70;1.00;;;;;;4990651;28;20588;-53
2022/05/18 08:23:06;;;;;;;13.60;12.30;;;20.80;1.00;;;;;;4987418;28;20436;-51
2022/05/18 08:25:32;;;;;;;11.83;10.70;;;20.80;1.00;;;;;;4976851;28;20449;-51
2022/05/18 08:27:58;;;;;;;12.23;11.13;;;20.80;1.00;;;;;;4990338;28;20436;-53
2022/05/18 08:30:24;;;;;;;11.90;10.90;;;21.00;99.90;;;;;;4983501;28;20185;-52
2022/05/18 08:32:50;;;;;;;12.20;11.10;;;21.20;99.90;;;;;;4990666;28;20180;-51
2022/05/18 08:35:17;;;;;;;12.43;11.43;;;21.30;99.90;;;;;;4990519;28;20450;-50
2022/05/18 08:37:46;;;;;;;12.43;11.43;;;21.40;99.90;;;;;;4989738;28;20445;-54
2022/05/18 08:40:29;;;;;;;11.70;10.73;;;21.60;99.90;;;;;;4981066;28;20462;-55
2022/05/18 08:43:04;;;;;;;11.10;10.30;;;21.90;33.40;;;;;;4980595;28;20550;-52
2022/05/18 08:45:34;;;;;;;11.70;10.80;;;22.10;15.30;;;;;;4973087;28;20954;-51
2022/05/18 08:48:19;;;;;;;11.47;10.67;;;22.20;1.00;;;;;;4974834;28;20438;-55
2022/05/18 08:50:44;;;;;;;12.10;11.20;;;22.50;1.00;;;;;;4972805;28;20475;-50
2022/05/18 08:53:13;;;;;;;11.57;10.63;;;22.80;99.90;;;;;;4971522;28;20423;-54
2022/05/18 08:56:03;;;;;;;11.80;10.90;;;23.00;99.90;;;;;;4988372;28;20298;-52
2022/05/18 08:58:29;;;;;;;11.90;10.90;;;23.30;99.90;;;;;;4990657;28;20853;-53
2022/05/18 09:01:06;;;;;;;11.37;10.57;;;23.60;1.00;;;;;;4990528;28;20490;-53
2022/05/18 09:03:36;;;;;;;11.17;10.37;;;23.80;1.00;;;;;;4976792;28;20180;-54
2022/05/18 09:06:21;;;;;;;11.60;10.63;;;24.10;1.00;;;;;;4984985;28;20911;-54
2022/05/18 09:11:59;;;;;;;11.67;10.80;;;25.00;1.00;;;;;;4973974;28;21292;-56
2022/05/18 09:14:27;;;;;;;11.20;10.40;;;25.20;99.90;;;;;;4990714;28;20449;-53
2022/05/18 09:17:09;;;;;;;10.53;9.83;;;25.40;99.90;;;;;;4990383;28;20472;-54
2022/05/18 09:19:56;;;;;;;11.70;10.80;;;25.70;99.90;;;;;;4989228;28;20495;-54
2022/05/18 09:22:41;;;;;;;11.47;10.20;;;26.20;99.90;;;;;;4988743;28;20481;-52
2022/05/18 09:25:44;;;;;;;11.07;10.30;;;26.10;99.90;;;;;;4987217;28;20440;-53
2022/05/18 09:28:19;;;;;;;10.23;9.53;;;26.50;99.90;;;;;;4989088;28;20450;-49
2022/05/18 09:31:21;;;;;;;10.87;10.07;;;27.10;99.90;;;;;;4983859;28;20797;-53
2022/05/18 09:34:08;;;;;;;10.50;9.80;;;27.50;99.90;;;;;;4988207;28;20449;-55
2022/05/18 09:37:03;;;;;;;10.70;10.00;;;28.20;99.90;;;;;;4989054;28;20416;-54
2022/05/18 09:39:34;;;;;;;10.37;9.60;;;28.70;99.90;;;;;;4986910;28;20479;-50
2022/05/18 09:42:04;;;;;;;10.10;9.33;;;28.70;99.90;;;;;;4976515;28;20411;-52
2022/05/18 09:44:59;;;;;;;10.67;9.70;;;29.00;99.90;;;;;;4981260;28;20790;-55
2022/05/18 09:47:30;;;;;;;10.03;9.43;;;29.60;99.90;;;;;;4992113;28;20933;-54
2022/05/18 09:50:01;;;;;;;10.07;9.27;;;29.90;99.90;;;;;;4992343;28;20470;-52
2022/05/18 09:52:28;;;;;;;10.57;9.77;;;30.40;99.90;;;;;;4991109;28;20495;-54
2022/05/18 09:54:59;;;;;;;11.03;10.23;;;30.50;99.90;;;;;;4990335;28;20435;-53
2022/05/18 09:57:34;;;;;;;9.83;9.23;;;30.50;99.90;;;;;;4989712;28;20475;-54
2022/05/18 10:00:11;;;;;;;10.40;9.60;;;30.90;99.90;;;;;;4979883;28;20465;-56
2022/05/18 10:08:21;;;;;;;9.80;9.20;;;32.10;99.90;;;;;;4981400;28;20447;-51
2022/05/18 10:10:53;;;;;;;8.37;7.87;;;32.10;99.90;;;;;;4978016;28;20443;-51
2022/05/18 10:13:24;;;;;;;9.47;8.77;;;32.30;99.90;;;;;;4989174;28;20439;-51
2022/05/18 10:16:04;;;;;;;10.27;9.57;;;32.60;99.90;;;;;;4989116;28;20416;-54
2022/05/18 10:18:41;;;;;;;10.70;9.90;;;33.00;99.90;;;;;;4985032;28;20502;-53
2022/05/18 10:21:10;;;;;;;10.60;9.90;;;33.10;99.90;;;;;;4990846;28;20442;-54
2022/05/18 10:23:50;;;;;;;10.67;10.07;;;33.70;99.90;;;;;;4991351;28;20434;-51
2022/05/18 10:26:32;;;;;;;10.50;9.80;;;33.70;99.90;;;;;;4990751;28;20728;-54
2022/05/18 10:29:06;;;;;;;10.87;10.27;;;33.60;99.90;;;;;;4989495;28;20631;-53
2022/05/18 10:31:42;;;;;;;11.20;10.50;;;33.30;99.90;;;;;;4985799;28;20440;-53
2022/05/18 10:34:55;;;;;;;10.10;9.40;;;32.80;99.90;;;;;;4985481;28;20794;-52
2022/05/18 10:37:28;;;;;;;10.77;10.07;;;32.50;99.90;;;;;;4985406;28;20439;-51
2022/05/18 10:40:14;;;;;;;11.77;11.00;;;33.00;99.90;;;;;;4990784;28;20477;-50
2022/05/18 10:42:48;;;;;;;11.17;10.47;;;33.50;99.90;;;;;;4986835;28;21096;-53
2022/05/18 10:45:32;;;;;;;10.40;9.80;;;33.50;99.90;;;;;;4972050;28;20508;-53
2022/05/18 10:48:20;;;;;;;11.23;10.43;;;33.20;99.90;;;;;;4977035;28;20922;-54
2022/05/18 10:50:46;;;;;;;11.40;10.70;;;32.90;99.90;;;;;;4989478;28;20434;-52
2022/05/18 10:53:17;;;;;;;11.60;10.80;;;32.70;99.90;;;;;;4990304;28;20435;-52
2022/05/18 10:55:58;;;;;;;10.83;10.07;;;32.10;99.90;;;;;;4990598;28;20240;-50
2022/05/18 10:58:39;;;;;;;11.73;10.93;;;32.20;99.90;;;;;;4989669;28;20520;-52
2022/05/18 11:01:14;;;;;;;12.60;11.70;;;32.70;99.90;;;;;;4988387;28;20467;-52
2022/05/18 11:04:01;;;;;;;12.00;11.10;;;33.20;99.90;;;;;;4989878;28;20447;-49
2022/05/18 11:06:39;;;;;;;11.30;10.53;;;33.40;99.90;;;;;;4987867;28;20454;-52
2022/05/18 11:09:27;;;;;;;11.27;10.67;;;33.80;99.90;;;;;;4990896;28;20459;-51
2022/05/18 11:12:25;;;;;;;11.57;10.77;;;34.10;99.90;;;;;;4989642;28;21063;-53
2022/05/18 11:15:20;;;;;;;11.80;11.00;;;34.90;99.90;;;;;;4988532;28;20436;-53
2022/05/18 11:17:51;;;;;;;10.70;10.00;;;35.30;99.90;;;;;;4989513;28;20471;-50
2022/05/18 11:20:22;;;;;;;11.33;10.73;;;35.40;99.90;;;;;;4985418;28;20416;-55
2022/05/18 11:23:20;;;;;;;10.60;9.90;;;35.20;99.90;;;;;;4988813;28;20788;-52
2022/05/18 11:26:02;;;;;;;11.40;10.70;;;35.00;99.90;;;;;;4988882;28;20977;-52
2022/05/18 11:29:04;;;;;;;12.30;11.60;;;34.90;99.90;;;;;;4984179;28;21300;-53
2022/05/18 11:31:33;;;;;;;11.17;10.43;;;34.90;99.90;;;;;;4984078;28;20448;-53
2022/05/18 11:34:04;;;;;;;10.83;10.10;;;35.00;99.90;;;;;;4976416;28;20768;-52
2022/05/18 11:36:54;;;;;;;11.50;10.70;;;35.10;99.90;;;;;;4989407;28;20416;-53
2022/05/18 11:40:06;;;;;;;11.23;10.53;;;34.00;99.90;;;;;;4989948;28;20415;-55
2022/05/18 11:42:54;;;;;;;11.43;10.73;;;34.10;99.90;;;;;;5006689;28;20521;-53
2022/05/18 11:45:47;;;;;;;10.83;10.20;;;33.60;99.90;;;;;;4990574;28;20424;-53
2022/05/18 11:48:27;;;;;;;11.70;11.00;;;33.70;99.90;;;;;;4989343;28;20447;-51
2022/05/18 11:51:11;;;;;;;11.40;10.70;;;33.50;99.90;;;;;;4983721;28;21262;-52
2022/05/18 11:54:06;;;;;;;11.20;10.50;;;34.10;99.90;;;;;;4986493;28;20423;-50
2022/05/18 11:56:40;;;;;;;10.40;9.70;;;34.70;99.90;;;;;;4989009;28;20467;-51
2022/05/18 11:59:45;;;;;;;10.50;9.90;;;34.80;99.90;;;;;;4989946;28;20418;-55
2022/05/18 12:02:54;;;;;;;11.30;10.37;;;35.40;99.90;;;;;;4989557;28;20527;-52
2022/05/18 12:05:41;;;;;;;10.67;9.93;;;35.80;99.90;;;;;;4970641;28;20428;-52
2022/05/18 12:08:27;;;;;;;10.77;10.07;;;35.60;99.90;;;;;;4985390;28;20433;-54
2022/05/18 12:11:11;;;;;;;11.90;11.10;;;35.30;99.90;;;;;;4970265;28;20448;-55
2022/05/18 12:14:06;;;;;;;12.67;11.77;;;35.00;99.90;;;;;;4974659;28;20533;-56
2022/05/18 12:16:53;;;;;;;12.37;11.40;;;34.70;99.90;;;;;;4990024;28;20739;-56
2022/05/18 12:19:36;;;;;;;11.77;10.97;;;34.40;99.90;;;;;;4988527;28;20462;-55
2022/05/18 12:22:08;;;;;;;11.63;10.93;;;34.70;99.90;;;;;;4983995;28;20430;-54
2022/05/18 12:24:37;;;;;;;13.00;12.10;;;34.10;99.90;;;;;;4988212;28;20512;-54
2022/05/18 12:27:04;;;;;;;12.23;11.53;;;34.10;99.90;;;;;;4971620;28;20471;-51
2022/05/18 12:29:32;;;;;;;13.67;12.67;;;34.20;99.90;;;;;;4969718;28;20463;-53
2022/05/18 12:31:58;;;;;;;12.67;11.87;;;33.90;99.90;;;;;;4988535;28;21001;-53
2022/05/18 12:34:33;;;;;;;11.70;11.10;;;34.30;99.90;;;;;;4984668;28;20570;-53
2022/05/18 12:37:14;;;;;;;12.00;11.20;;;33.60;99.90;;;;;;4975960;28;20828;-52
2022/05/18 12:39:43;;;;;;;11.43;10.73;;;33.20;99.90;;;;;;4976280;28;20433;-52
2022/05/18 12:42:15;;;;;;;11.17;10.50;;;33.10;99.90;;;;;;4984745;28;20799;-55
2022/05/18 12:44:50;;;;;;;11.80;11.10;;;33.70;99.90;;;;;;4971063;28;20433;-52
2022/05/18 12:47:27;;;;;;;11.40;10.70;;;34.20;99.90;;;;;;4989375;28;20434;-51
2022/05/18 12:50:02;;;;;;;11.50;10.80;;;34.80;99.90;;;;;;4988470;28;20550;-55
2022/05/18 12:52:37;;;;;;;12.23;11.43;;;35.30;99.90;;;;;;4981960;28;20527;-52
2022/05/18 12:55:31;;;;;;;12.00;11.20;;;34.70;99.90;;;;;;4978056;28;20431;-54
2022/05/18 12:58:08;;;;;;;12.83;11.90;;;34.80;99.90;;;;;;4987932;28;20555;-53
2022/05/18 13:00:33;;;;;;;12.70;11.93;;;34.60;99.90;;;;;;4970502;28;20435;-52
2022/05/18 13:03:08;;;;;;;11.67;10.80;;;33.80;99.90;;;;;;4970954;28;20428;-51
2022/05/18 13:05:38;;;;;;;11.37;10.67;;;34.00;99.90;;;;;;4981581;28;20188;-51
2022/05/18 13:08:24;;;;;;;10.40;9.60;;;34.10;99.90;;;;;;4989740;28;20430;-54
2022/05/18 13:11:11;;;;;;;11.20;10.60;;;33.90;99.90;;;;;;4978210;28;20529;-55